Terminal Aerodrome Forecast
Issued by NWS

Home | Current Version | Previous Version | Text Only | Print | Product List | Glossary On
Versions: 1 2 3 4 5 6 7 8 9 10 11 12 13 14 15 16 17 18
000
FTUS46 KEKA 231700
TAFCEC
TAF
KCEC 231740Z 2318/2418 16015G23KT 6SM -RA OVC020
     FM240100 17012G20KT 5SM -RA BR OVC010
     FM240900 17020G30KT 3SM -RA BR OVC010=

USA.gov is the U.S. government's official web portal to all federal, state and local government web resources and services.